Главная страница
METAR-TAF:

METAR-TAF

Аэропорты :

Орадя, Румыния

широта: 47-03N, долгота: 021-56E, высота над уровнем моря: 135 м

Текущие метеонаблюдения

Эта сводка был подготовлена 14 минут назад, в 22:00 UTC
Ветер 7 Узел от восточно-юго-восточный
Температура 15°C
Влажность 72%
Давление 1018 hPa
Видимость 10 км и более

METAR: LROD 252200Z AUTO 11007KT 9999 NCD 15/10 Q1018

Время: 01:14 (22:14 UTC)

Прогноз

Эта сводка был подготовлена 5 часа и 14 минут назад, в 17:00 UTC
Прогноз действительный с 25-го 18 UTC до 26-го 03 UTC
Ветер 8 Узел от южный
Видимость 10 км и более
Нет облачности ниже 1500 м, и нет кучево-дождевой облачности

TAF: LROD 251700Z 2518/2603 18008KT CAVOK

Метеонаблюдения и прогнозы для более 4000 аэропортов (сводки METAR и TAF).

Имеющиеся станции представлены на карте желтыми и красными точками.

Чтобы увидеть название станции, наведите на нее мышь.

Затем щелкните, чтобы увидеть метеонаблюдения и метеопрогнозы.

Управление картой: чтобы увеличить масштаб, щелкните зеленые кнопки с черным крестиком; чтобы уменьшить масштаб, щелкните зеленую кнопку с тире; для просмотра соседних карт щелкайте зеленые стрелки.


METAR-TAF: